Terminal Aerodrome Forecast
Issued by NWS

Home | Current Version | Previous Version | Graphics & Text | Print | Product List | Glossary On
Versions: 1 2 3 4 5 6 7 8 9 10 11 12 13 14 15 16 17 18 19 20
000
FTUS43 KICT 030536
TAFHUT
TAF
KHUT 030536Z 0306/0406 18019G27KT 4SM BR OVC008
      TEMPO 0309/0313 OVC012
     FM031300 23019G27KT P6SM SCT020 BKN250
     FM031800 36017G25KT P6SM BKN030 OVC250
     FM040000 01012KT P6SM SCT030 BKN250=

USA.gov is the U.S. government's official web portal to all federal, state and local government web resources and services.